createdAt,value
2023-02-11T00:00:28.462Z,8.70
2023-02-11T00:02:55.040Z,8.70
2023-02-11T00:05:21.940Z,9.60
2023-02-11T00:07:48.588Z,9.60
2023-02-11T00:10:15.625Z,11.50
2023-02-11T00:12:43.388Z,7.60
2023-02-11T00:15:10.747Z,14.60
2023-02-11T00:17:37.792Z,19.00
2023-02-11T00:20:07.178Z,17.90
2023-02-11T00:22:34.967Z,17.80
2023-02-11T00:25:01.605Z,16.40
2023-02-11T00:27:28.198Z,15.40
2023-02-11T00:29:54.888Z,18.20
2023-02-11T00:32:21.716Z,17.20
2023-02-11T00:34:52.244Z,15.30
2023-02-11T00:37:18.951Z,14.80
2023-02-11T00:39:45.717Z,15.40
2023-02-11T00:42:14.605Z,15.00
2023-02-11T00:44:41.441Z,16.60
2023-02-11T00:47:08.290Z,14.60
2023-02-11T00:49:37.180Z,16.20
2023-02-11T00:52:04.232Z,17.40
2023-02-11T00:54:30.886Z,15.00
2023-02-11T00:56:57.485Z,17.30
2023-02-11T00:59:24.547Z,14.60
2023-02-11T01:01:51.390Z,16.20
2023-02-11T01:04:18.432Z,10.60
2023-02-11T01:06:45.282Z,11.90
2023-02-11T01:09:12.126Z,10.80
2023-02-11T01:11:38.964Z,9.90
2023-02-11T01:14:05.649Z,11.30
2023-02-11T01:16:32.443Z,13.60
2023-02-11T01:18:59.304Z,15.50
2023-02-11T01:21:26.339Z,15.80
2023-02-11T01:23:53.392Z,11.50
2023-02-11T01:26:20.273Z,13.50
2023-02-11T01:28:47.482Z,12.40
2023-02-11T01:31:14.408Z,14.60
2023-02-11T01:33:41.372Z,16.40
2023-02-11T01:36:09.555Z,18.50
2023-02-11T01:38:36.527Z,18.50
2023-02-11T01:41:05.381Z,19.70
2023-02-11T01:43:33.717Z,20.60
2023-02-11T01:46:00.530Z,20.90
2023-02-11T01:48:30.210Z,20.50
2023-02-11T01:50:59.982Z,18.60
2023-02-11T01:53:45.601Z,19.30
2023-02-11T01:56:31.694Z,20.00
2023-02-11T01:59:02.251Z,20.00
2023-02-11T02:01:29.510Z,17.50
2023-02-11T02:04:00.185Z,15.40
2023-02-11T02:06:30.122Z,10.90
2023-02-11T02:08:59.631Z,10.70
2023-02-11T02:11:26.675Z,13.70
2023-02-11T02:13:53.520Z,12.90
2023-02-11T02:16:22.400Z,10.80
2023-02-11T02:19:07.802Z,11.70
2023-02-11T02:21:53.566Z,11.80
2023-02-11T02:24:46.280Z,10.10
2023-02-11T02:27:16.129Z,11.60
2023-02-11T02:30:14.981Z,10.30
2023-02-11T02:33:05.740Z,11.50
2023-02-11T02:35:52.427Z,7.30
2023-02-11T02:38:23.774Z,11.70
2023-02-11T02:40:50.415Z,18.40
2023-02-11T02:43:17.872Z,17.00
2023-02-11T02:45:44.716Z,17.50
2023-02-11T02:48:27.698Z,17.10
2023-02-11T02:51:14.549Z,13.20
2023-02-11T02:53:41.178Z,14.90
2023-02-11T02:56:14.084Z,12.90
2023-02-11T02:58:59.464Z,13.30
2023-02-11T03:01:26.194Z,14.10
2023-02-11T03:03:52.831Z,14.00
2023-02-11T03:06:32.380Z,15.80
2023-02-11T03:08:58.961Z,15.30
2023-02-11T03:11:26.302Z,15.10
2023-02-11T03:13:54.938Z,15.70
2023-02-11T03:16:25.129Z,11.80
2023-02-11T03:18:59.523Z,13.50
2023-02-11T03:21:28.174Z,7.90
2023-02-11T03:23:57.045Z,9.90
2023-02-11T03:26:28.404Z,10.20
2023-02-11T03:29:03.852Z,9.30
2023-02-11T03:31:30.846Z,9.80
2023-02-11T03:34:10.035Z,10.60
2023-02-11T03:36:46.028Z,12.90
2023-02-11T03:39:18.855Z,10.80
2023-02-11T03:41:46.520Z,9.50
2023-02-11T03:44:15.216Z,6.70
2023-02-11T03:46:44.094Z,14.10
2023-02-11T03:49:13.462Z,16.10
2023-02-11T03:51:40.501Z,16.50
2023-02-11T03:54:10.559Z,17.30
2023-02-11T03:56:40.268Z,18.30
2023-02-11T03:59:07.752Z,24.60
2023-02-11T04:01:34.669Z,19.30
2023-02-11T04:04:01.618Z,21.00
2023-02-11T04:06:28.473Z,19.90
2023-02-11T04:08:55.314Z,20.00
2023-02-11T04:11:21.921Z,19.10
2023-02-11T04:13:48.573Z,18.10
2023-02-11T04:16:15.483Z,17.90
2023-02-11T04:18:42.470Z,16.50
2023-02-11T04:21:09.545Z,17.00
2023-02-11T04:23:36.563Z,14.90
2023-02-11T04:26:03.285Z,15.90
2023-02-11T04:28:30.317Z,17.50
2023-02-11T04:30:57.755Z,13.20
2023-02-11T04:33:25.156Z,15.70
2023-02-11T04:35:52.002Z,11.10
2023-02-11T04:38:18.848Z,11.20
2023-02-11T04:40:45.684Z,14.60
2023-02-11T04:43:12.531Z,9.00
2023-02-11T04:45:39.188Z,10.30
2023-02-11T04:48:06.010Z,8.40
2023-02-11T04:50:33.069Z,8.70
2023-02-11T04:52:59.894Z,8.70
2023-02-11T04:55:26.734Z,11.20
2023-02-11T04:57:53.585Z,15.60
2023-02-11T05:00:20.428Z,16.80
2023-02-11T05:02:47.268Z,16.20
2023-02-11T05:05:13.955Z,15.10
2023-02-11T05:07:41.371Z,16.70
2023-02-11T05:10:08.606Z,17.30
2023-02-11T05:12:35.448Z,18.20
2023-02-11T05:15:02.096Z,18.60
2023-02-11T05:17:28.934Z,21.50
2023-02-11T05:19:55.781Z,22.10
2023-02-11T05:22:22.624Z,19.80
2023-02-11T05:24:50.184Z,18.00
2023-02-11T05:27:17.140Z,18.00
2023-02-11T05:29:43.970Z,16.10
2023-02-11T05:32:10.802Z,18.30
2023-02-11T05:34:37.818Z,18.20
2023-02-11T05:37:04.547Z,18.30
2023-02-11T05:39:31.331Z,14.60
2023-02-11T05:41:57.966Z,18.00
2023-02-11T05:44:24.811Z,21.10
2023-02-11T05:46:51.656Z,25.90
2023-02-11T05:49:18.497Z,20.00
2023-02-11T05:51:45.091Z,17.20
2023-02-11T05:54:11.979Z,17.10
2023-02-11T05:56:38.821Z,15.40
2023-02-11T05:59:05.469Z,10.80
2023-02-11T06:01:32.299Z,10.80
2023-02-11T06:03:59.005Z,8.70
2023-02-11T06:06:25.984Z,15.30
2023-02-11T06:08:52.833Z,13.70
2023-02-11T06:11:20.513Z,22.30
2023-02-11T06:13:47.188Z,19.80
2023-02-11T06:16:14.040Z,23.20
2023-02-11T06:18:41.013Z,23.80
2023-02-11T06:21:08.539Z,24.20
2023-02-11T06:23:35.313Z,25.40
2023-02-11T06:26:03.284Z,24.50
2023-02-11T06:28:31.678Z,24.90
2023-02-11T06:30:59.217Z,24.40
2023-02-11T06:33:26.186Z,23.50
2023-02-11T06:35:53.159Z,23.70
2023-02-11T06:38:20.050Z,19.80
2023-02-11T06:40:50.371Z,23.20
2023-02-11T06:43:16.977Z,22.90
2023-02-11T06:45:43.856Z,23.90
2023-02-11T06:48:10.692Z,24.50
2023-02-11T06:50:37.334Z,18.10
2023-02-11T06:53:04.386Z,20.40
2023-02-11T06:55:31.121Z,15.40
2023-02-11T06:57:57.725Z,18.90
2023-02-11T07:00:24.710Z,17.20
2023-02-11T07:02:51.404Z,19.50
2023-02-11T07:05:18.127Z,23.60
2023-02-11T07:07:44.823Z,11.20
2023-02-11T07:10:11.664Z,14.50
2023-02-11T07:12:38.512Z,14.80
2023-02-11T07:15:05.759Z,18.00
2023-02-11T07:17:32.616Z,17.70
2023-02-11T07:19:59.255Z,24.10
2023-02-11T07:22:26.074Z,47.70
2023-02-11T07:24:52.924Z,53.30
2023-02-11T07:27:19.764Z,55.30
2023-02-11T07:29:47.155Z,50.70
2023-02-11T07:32:14.082Z,42.30
2023-02-11T07:34:40.950Z,44.80
2023-02-11T07:37:07.747Z,40.30
2023-02-11T07:39:34.588Z,35.00
2023-02-11T07:42:01.544Z,33.30
2023-02-11T07:44:28.477Z,31.30
2023-02-11T07:46:55.215Z,27.10
2023-02-11T07:49:21.960Z,28.20
2023-02-11T07:51:49.408Z,24.60
2023-02-11T07:54:16.057Z,23.50
2023-02-11T07:56:42.892Z,13.40
2023-02-11T07:59:11.078Z,18.50
2023-02-11T08:01:38.004Z,18.70
2023-02-11T08:04:04.959Z,14.30
2023-02-11T08:06:32.960Z,21.30
2023-02-11T08:09:04.264Z,14.30
2023-02-11T08:11:31.113Z,14.50
2023-02-11T08:13:57.797Z,13.00
2023-02-11T08:16:29.196Z,20.70
2023-02-11T08:18:58.022Z,22.40
2023-02-11T08:21:24.905Z,24.80
2023-02-11T08:23:51.920Z,21.70
2023-02-11T08:26:20.561Z,25.10
2023-02-11T08:28:48.435Z,15.20
2023-02-11T08:31:16.816Z,9.00
2023-02-11T08:33:44.254Z,21.20
2023-02-11T08:36:12.251Z,25.10
2023-02-11T08:38:39.274Z,18.90
2023-02-11T08:41:06.521Z,18.80
2023-02-11T08:43:33.574Z,18.00
2023-02-11T08:46:02.591Z,16.90
2023-02-11T08:48:30.126Z,15.90
2023-02-11T08:50:57.508Z,18.80
2023-02-11T08:53:24.445Z,90.50
2023-02-11T08:55:52.325Z,39.50
2023-02-11T08:58:19.542Z,18.30
2023-02-11T09:00:46.600Z,12.90
2023-02-11T09:03:14.041Z,11.70
2023-02-11T09:05:47.064Z,11.70
2023-02-11T09:08:14.502Z,12.30
2023-02-11T09:10:41.112Z,12.90
2023-02-11T09:13:08.104Z,12.20
2023-02-11T09:15:35.223Z,11.60
2023-02-11T09:18:02.353Z,12.10
2023-02-11T09:20:29.107Z,13.00
2023-02-11T09:22:57.791Z,11.10
2023-02-11T09:25:25.042Z,9.60
2023-02-11T09:27:52.509Z,16.90
2023-02-11T09:30:19.435Z,10.50
2023-02-11T09:32:46.034Z,10.80
2023-02-11T09:35:12.826Z,15.20
2023-02-11T09:37:39.469Z,59.40
2023-02-11T09:40:06.534Z,48.70
2023-02-11T09:42:48.505Z,14.10
2023-02-11T09:45:20.894Z,16.60
2023-02-11T09:48:10.865Z,11.60
2023-02-11T09:50:40.580Z,13.00
2023-02-11T09:53:12.950Z,15.90
2023-02-11T09:55:42.976Z,9.20
2023-02-11T09:58:21.976Z,20.50
2023-02-11T10:00:52.190Z,12.60
2023-02-11T10:03:37.597Z,13.00
2023-02-11T10:06:04.201Z,11.70
2023-02-11T10:08:37.632Z,11.80
2023-02-11T10:11:31.507Z,9.00
2023-02-11T10:13:58.960Z,11.60
2023-02-11T10:16:31.745Z,9.90
2023-02-11T10:19:11.689Z,11.00
2023-02-11T10:21:46.741Z,10.00
2023-02-11T10:24:15.408Z,8.90
2023-02-11T10:26:43.544Z,6.80
2023-02-11T10:29:29.374Z,10.20
2023-02-11T10:31:58.405Z,9.50
2023-02-11T10:34:25.521Z,11.30
2023-02-11T10:36:52.355Z,10.60
2023-02-11T10:39:21.245Z,10.80
2023-02-11T10:41:51.388Z,10.00
2023-02-11T10:44:38.482Z,11.40
2023-02-11T10:47:09.833Z,9.00
2023-02-11T10:49:38.221Z,8.20
2023-02-11T10:52:21.839Z,11.20
2023-02-11T10:55:11.521Z,8.50
2023-02-11T10:57:40.684Z,13.00
2023-02-11T11:00:19.551Z,11.40
2023-02-11T11:02:52.532Z,10.60
2023-02-11T11:05:21.221Z,13.50
2023-02-11T11:07:58.706Z,10.40
2023-02-11T11:10:27.512Z,10.90
2023-02-11T11:12:54.486Z,10.80
2023-02-11T11:15:22.506Z,10.70
2023-02-11T11:17:50.381Z,10.60
2023-02-11T11:20:20.513Z,9.80
2023-02-11T11:22:48.164Z,10.50
2023-02-11T11:25:29.749Z,12.30
2023-02-11T11:27:58.386Z,12.60
2023-02-11T11:30:28.217Z,9.40
2023-02-11T11:32:55.428Z,10.10
2023-02-11T11:35:26.744Z,9.30
2023-02-11T11:38:01.383Z,10.00
2023-02-11T11:40:30.192Z,10.20
2023-02-11T11:43:03.570Z,13.30
2023-02-11T11:45:30.547Z,12.60
2023-02-11T11:47:57.464Z,11.10
2023-02-11T11:50:24.177Z,11.00
2023-02-11T11:52:55.605Z,11.70
2023-02-11T11:55:25.277Z,8.30
2023-02-11T11:57:52.514Z,15.40
2023-02-11T12:00:21.999Z,10.10
2023-02-11T12:02:48.866Z,9.60
2023-02-11T12:05:23.096Z,8.80
2023-02-11T12:08:08.829Z,11.40
2023-02-11T12:10:44.684Z,10.60
2023-02-11T12:13:30.471Z,7.70
2023-02-11T12:16:18.234Z,9.20
2023-02-11T12:18:57.128Z,11.20
2023-02-11T12:21:26.635Z,10.00
2023-02-11T12:23:53.684Z,12.00
2023-02-11T12:26:24.623Z,9.70
2023-02-11T12:29:01.781Z,12.00
2023-02-11T12:31:42.095Z,12.10
2023-02-11T12:34:11.990Z,8.80
2023-02-11T12:37:03.005Z,12.50
2023-02-11T12:39:43.444Z,16.20
2023-02-11T12:42:44.184Z,9.00
2023-02-11T12:45:11.678Z,9.80
2023-02-11T12:47:45.618Z,27.50
2023-02-11T12:50:41.995Z,32.30
2023-02-11T12:53:27.725Z,28.20
2023-02-11T12:56:02.858Z,30.00
2023-02-11T12:58:44.014Z,15.90
2023-02-11T13:01:17.744Z,16.00
2023-02-11T13:03:52.552Z,12.40
2023-02-11T13:06:22.651Z,11.40
2023-02-11T13:08:52.564Z,8.70
2023-02-11T13:11:22.066Z,8.00
2023-02-11T13:13:48.935Z,8.60
2023-02-11T13:16:33.178Z,10.70
2023-02-11T13:19:09.522Z,7.60
2023-02-11T13:21:45.482Z,8.40
2023-02-11T13:24:31.313Z,8.70
2023-02-11T13:27:10.096Z,11.30
2023-02-11T13:29:58.755Z,11.80
2023-02-11T13:32:25.529Z,8.50
2023-02-11T13:34:57.849Z,9.40
2023-02-11T13:37:28.338Z,6.70
2023-02-11T13:40:00.561Z,7.50
2023-02-11T13:42:28.626Z,15.20
2023-02-11T13:44:55.662Z,23.80
2023-02-11T13:47:29.092Z,22.50
2023-02-11T13:49:56.591Z,11.70
2023-02-11T13:52:23.771Z,8.70
2023-02-11T13:54:52.864Z,8.40
2023-02-11T13:57:23.596Z,7.00
2023-02-11T14:00:01.091Z,5.90
2023-02-11T14:02:54.356Z,7.90
2023-02-11T14:05:41.716Z,6.50
2023-02-11T14:08:30.839Z,7.90
2023-02-11T14:11:13.347Z,8.70
2023-02-11T14:13:49.927Z,8.20
2023-02-11T14:16:22.554Z,8.00
2023-02-11T14:18:55.897Z,7.60
2023-02-11T14:21:31.699Z,8.30
2023-02-11T14:24:03.102Z,7.20
2023-02-11T14:26:42.844Z,7.70
2023-02-11T14:29:10.096Z,5.60
2023-02-11T14:31:44.881Z,5.30
2023-02-11T14:34:24.673Z,7.70
2023-02-11T14:36:54.990Z,5.80
2023-02-11T14:39:21.839Z,7.40
2023-02-11T14:41:51.272Z,7.60
2023-02-11T14:44:20.814Z,7.00
2023-02-11T14:46:51.137Z,6.20
2023-02-11T14:49:34.017Z,6.10
2023-02-11T14:52:21.448Z,6.80
2023-02-11T14:54:49.420Z,6.80
2023-02-11T14:57:17.863Z,8.40
2023-02-11T15:00:05.903Z,7.40
2023-02-11T15:02:35.743Z,8.90
2023-02-11T15:05:20.643Z,14.90
2023-02-11T15:07:53.260Z,15.40
2023-02-11T15:10:40.891Z,8.90
2023-02-11T15:13:08.411Z,8.90
2023-02-11T15:15:37.901Z,11.10
2023-02-11T15:18:05.794Z,8.20
2023-02-11T15:20:34.341Z,4.90
2023-02-11T15:23:07.491Z,5.50
2023-02-11T15:25:42.844Z,4.90
2023-02-11T15:28:31.133Z,4.30
2023-02-11T15:30:58.429Z,3.80
2023-02-11T15:33:26.911Z,5.00
2023-02-11T15:35:54.377Z,6.00
2023-02-11T15:38:22.137Z,6.30
2023-02-11T15:40:55.017Z,5.10
2023-02-11T15:43:27.792Z,5.70
2023-02-11T15:45:57.557Z,5.10
2023-02-11T15:48:29.632Z,21.90
2023-02-11T15:50:59.759Z,17.10
2023-02-11T15:53:32.661Z,18.20
2023-02-11T15:56:24.788Z,18.10
2023-02-11T15:58:54.540Z,30.10
2023-02-11T16:01:33.808Z,25.20
2023-02-11T16:04:03.040Z,16.10
2023-02-11T16:06:41.174Z,11.80
2023-02-11T16:09:14.257Z,12.30
2023-02-11T16:11:48.712Z,11.90
2023-02-11T16:14:32.480Z,8.70
2023-02-11T16:17:00.381Z,7.00
2023-02-11T16:19:29.678Z,18.60
2023-02-11T16:22:01.558Z,18.90
2023-02-11T16:24:33.809Z,19.90
2023-02-11T16:27:03.943Z,23.90
2023-02-11T16:29:33.102Z,19.00
2023-02-11T16:32:12.057Z,29.50
2023-02-11T16:34:39.363Z,50.50
2023-02-11T16:37:06.864Z,58.90
2023-02-11T16:39:34.949Z,37.10
2023-02-11T16:42:04.717Z,37.90
2023-02-11T16:44:35.176Z,34.00
2023-02-11T16:47:03.874Z,33.00
2023-02-11T16:49:33.561Z,28.00
2023-02-11T16:52:03.082Z,25.50
2023-02-11T16:54:31.771Z,25.60
2023-02-11T16:57:00.864Z,21.70
2023-02-11T16:59:28.536Z,20.40
2023-02-11T17:01:57.000Z,18.70
2023-02-11T17:04:29.056Z,15.80
2023-02-11T17:06:58.877Z,15.60
2023-02-11T17:09:30.472Z,11.80
2023-02-11T17:12:02.137Z,12.50
2023-02-11T17:14:30.461Z,12.60
2023-02-11T17:16:58.936Z,25.30
2023-02-11T17:19:26.818Z,26.00
2023-02-11T17:21:56.617Z,25.40
2023-02-11T17:24:26.429Z,22.80
2023-02-11T17:26:55.886Z,21.10
2023-02-11T17:29:25.439Z,27.90
2023-02-11T17:31:54.821Z,25.30
2023-02-11T17:34:24.058Z,22.50
2023-02-11T17:36:53.560Z,20.40
2023-02-11T17:39:22.435Z,24.10
2023-02-11T17:41:52.539Z,26.60
2023-02-11T17:44:20.014Z,25.20
2023-02-11T17:46:52.647Z,20.50
2023-02-11T17:49:21.683Z,22.90
2023-02-11T17:51:54.728Z,24.00
2023-02-11T17:54:23.555Z,20.30
2023-02-11T17:56:52.926Z,17.10
2023-02-11T17:59:21.963Z,10.90
2023-02-11T18:01:53.188Z,12.10
2023-02-11T18:04:21.639Z,10.70
2023-02-11T18:06:51.392Z,10.10
2023-02-11T18:09:18.762Z,11.40
2023-02-11T18:11:48.572Z,12.40
2023-02-11T18:14:16.526Z,13.20
2023-02-11T18:16:46.786Z,11.80
2023-02-11T18:19:15.540Z,13.30
2023-02-11T18:21:43.613Z,12.30
2023-02-11T18:24:12.947Z,12.40
2023-02-11T18:26:43.977Z,12.20
2023-02-11T18:29:12.324Z,12.20
2023-02-11T18:31:40.388Z,13.70
2023-02-11T18:34:11.826Z,13.90
2023-02-11T18:36:40.638Z,14.00
2023-02-11T18:39:08.925Z,13.60
2023-02-11T18:41:40.885Z,13.90
2023-02-11T18:44:12.837Z,15.80
2023-02-11T18:46:42.757Z,16.50
2023-02-11T18:49:16.495Z,17.40
2023-02-11T18:51:45.181Z,17.80
2023-02-11T18:54:14.292Z,14.80
2023-02-11T18:56:43.540Z,18.00
2023-02-11T18:59:13.271Z,18.60
2023-02-11T19:01:47.728Z,17.40
2023-02-11T19:04:20.716Z,16.40
2023-02-11T19:06:51.756Z,15.60
2023-02-11T19:09:20.780Z,16.60
2023-02-11T19:11:52.225Z,16.80
2023-02-11T19:14:23.490Z,16.20
2023-02-11T19:16:53.745Z,16.70
2023-02-11T19:19:23.722Z,16.50
2023-02-11T19:21:52.205Z,12.60
2023-02-11T19:24:21.195Z,13.10
2023-02-11T19:26:50.786Z,11.30
2023-02-11T19:29:19.299Z,12.40
2023-02-11T19:31:48.316Z,11.30
2023-02-11T19:34:17.906Z,12.50
2023-02-11T19:36:46.164Z,13.20
2023-02-11T19:39:15.166Z,12.00
2023-02-11T19:41:44.368Z,13.00
2023-02-11T19:44:13.424Z,13.10
2023-02-11T19:46:45.824Z,12.60
2023-02-11T19:49:18.658Z,11.40
2023-02-11T19:51:47.800Z,11.80
2023-02-11T19:54:18.513Z,10.10
2023-02-11T19:56:47.569Z,8.90
2023-02-11T19:59:16.302Z,8.90
2023-02-11T20:01:49.794Z,8.70
2023-02-11T20:04:21.474Z,8.80
2023-02-11T20:06:50.984Z,9.70
2023-02-11T20:09:19.561Z,8.80
2023-02-11T20:11:48.358Z,8.80
2023-02-11T20:14:17.750Z,8.30
2023-02-11T20:16:50.102Z,8.00
2023-02-11T20:19:20.445Z,6.70
2023-02-11T20:21:51.416Z,7.00
2023-02-11T20:24:20.313Z,7.80
2023-02-11T20:26:52.372Z,7.30
2023-02-11T20:29:21.229Z,8.70
2023-02-11T20:31:49.734Z,10.60
2023-02-11T20:34:19.542Z,9.80
2023-02-11T20:36:54.055Z,8.70
2023-02-11T20:39:24.304Z,8.50
2023-02-11T20:41:52.497Z,8.30
2023-02-11T20:44:23.073Z,7.10
2023-02-11T20:46:54.688Z,6.50
2023-02-11T20:49:25.373Z,6.10
2023-02-11T20:51:55.064Z,11.20
2023-02-11T20:54:24.289Z,11.60
2023-02-11T20:56:54.449Z,13.30
2023-02-11T20:59:23.587Z,11.90
2023-02-11T21:01:54.311Z,11.50
2023-02-11T21:04:28.937Z,10.90
2023-02-11T21:06:58.154Z,11.80
2023-02-11T21:09:28.100Z,10.90
2023-02-11T21:11:58.473Z,9.50
2023-02-11T21:14:27.981Z,8.80
2023-02-11T21:16:57.908Z,10.40
2023-02-11T21:19:27.619Z,13.70
2023-02-11T21:21:58.133Z,15.00
2023-02-11T21:24:26.828Z,16.40
2023-02-11T21:26:56.311Z,16.70
2023-02-11T21:29:23.581Z,18.40
2023-02-11T21:31:52.497Z,20.10
2023-02-11T21:34:21.578Z,22.90
2023-02-11T21:36:51.660Z,22.00
2023-02-11T21:39:21.462Z,19.70
2023-02-11T21:41:49.885Z,24.00
2023-02-11T21:44:18.356Z,18.80
2023-02-11T21:46:45.715Z,19.10
2023-02-11T21:49:13.482Z,16.20
2023-02-11T21:51:41.957Z,15.30
2023-02-11T21:54:12.690Z,14.00
2023-02-11T21:56:41.949Z,16.30
2023-02-11T21:59:12.520Z,15.70
2023-02-11T22:01:39.984Z,14.20
2023-02-11T22:04:06.822Z,14.20
2023-02-11T22:06:35.922Z,15.50
2023-02-11T22:09:05.038Z,12.20
2023-02-11T22:11:32.679Z,13.10
2023-02-11T22:14:00.334Z,14.40
2023-02-11T22:16:28.337Z,17.50
2023-02-11T22:18:56.736Z,14.50
2023-02-11T22:21:23.528Z,12.50
2023-02-11T22:23:50.913Z,15.30
2023-02-11T22:26:19.261Z,14.80
2023-02-11T22:28:46.717Z,15.80
2023-02-11T22:31:15.463Z,14.90
2023-02-11T22:33:42.653Z,16.80
2023-02-11T22:36:15.839Z,20.50
2023-02-11T22:38:42.498Z,22.10
2023-02-11T22:41:10.143Z,22.00
2023-02-11T22:43:37.803Z,22.30
2023-02-11T22:46:05.950Z,23.30
2023-02-11T22:48:33.738Z,24.90
2023-02-11T22:51:06.518Z,24.60
2023-02-11T22:53:33.578Z,28.00
2023-02-11T22:56:07.588Z,27.40
2023-02-11T22:58:34.831Z,29.70
2023-02-11T23:01:01.554Z,30.70
2023-02-11T23:03:29.338Z,31.00
2023-02-11T23:05:57.614Z,32.40
2023-02-11T23:08:24.863Z,33.20
2023-02-11T23:10:51.703Z,35.90
2023-02-11T23:13:18.541Z,36.00
2023-02-11T23:15:45.997Z,38.70
2023-02-11T23:18:13.462Z,40.00
2023-02-11T23:20:42.362Z,40.20
2023-02-11T23:23:09.607Z,38.40
2023-02-11T23:25:41.567Z,39.00
2023-02-11T23:28:08.868Z,35.80
2023-02-11T23:30:35.654Z,34.00
2023-02-11T23:33:02.503Z,37.60
2023-02-11T23:35:29.347Z,35.80
2023-02-11T23:37:56.194Z,33.20
2023-02-11T23:40:23.036Z,37.40
2023-02-11T23:42:49.643Z,36.40
2023-02-11T23:45:16.511Z,33.00
2023-02-11T23:47:43.356Z,29.90
2023-02-11T23:50:10.813Z,33.00
2023-02-11T23:52:37.855Z,33.40
2023-02-11T23:55:05.116Z,33.80
2023-02-11T23:57:33.000Z,34.20
2023-02-11T23:59:59.815Z,33.40
